Messwerte Noatak

Temperatur

Temperatur
°C
1618318800 5.00 5.00 -1
1618322400 6.00 6.00 -1
1618326000 7.00 7.00 -1
1618329600 8.00 8.00 -1
1618333200 9.00 9.00 0
1618336800 10.00 10.00 1
1618340400 11.00 11.00 2
1618344000 12.00 12.00 2
1618347600 13.00 13.00 2
1618351200 14.00 14.00 3
1618354800 15.00 15.00 3
1618358400 16.00 16.00 3
1618362000 17.00 17.00
1618365600 18.00 18.00 3
1618369200 19.00 19.00 3
1618372800 20.00 20.00 2
1618376400 21.00 21.00 2
1618380000 22.00 22.00 1
1618383600 23.00 23.00 1
1618387200 0.00 0.00 0
1618390800 1.00 1.00
1618394400 2.00 2.00 -1
1618398000 3.00 3.00 0
1618401600 4.00 4.00 -1

Aktuellste Messwerte

Wettercharakter
Wetter: wolkig, wenig Schnee
Temperatur
-1 °C
Feuchtigkeit
85 %
Wind
10 km/hWindrichtung: Nord
Luftdruck
1017 hPa
Messzeit: 14. April 2021, 5.00Datenquelle: METAR

Weitere Messstationen in der Nähe

Messstation Temperatur Entfernung
Kivalina 0 °C 69 km
Kotzebue -4 °C 75 km
Selawik -2 °C 167 km
Point Hope -5 °C 181 km
Buckland -8 °C 194 km
Cape Lisburne -12 °C 195 km
Shishmaref -7 °C 200 km

Wind

Windrichtung Böen Mittelwind
° km/h km/h
1618318800 5.00 4.00 - 5.00 120° 35 25
1618322400 6.00 5.00 - 6.00 120° 20
1618326000 7.00 6.00 - 7.00 120° 20
1618329600 8.00 7.00 - 8.00 120° 20
1618333200 9.00 8.00 - 9.00 110° 15
1618336800 10.00 9.00 - 10.00 100° 10
1618340400 11.00 10.00 - 11.00 90° 10
1618344000 12.00 11.00 - 12.00 120° 20
1618347600 13.00 12.00 - 13.00 100° 15
1618351200 14.00 13.00 - 14.00 90° 10
1618354800 15.00 14.00 - 15.00 80° 10
1618358400 16.00 15.00 - 16.00 100° 15
1618362000 17.00 16.00 - 17.00
1618365600 18.00 17.00 - 18.00 60° 15
1618369200 19.00 18.00 - 19.00 100° 10
1618372800 20.00 19.00 - 20.00 100° 10
1618376400 21.00 20.00 - 21.00 40° 10
1618380000 22.00 21.00 - 22.00 40° 10
1618383600 23.00 22.00 - 23.00 50° 15
1618387200 0.00 23.00 - 0.00 50° 15
1618390800 1.00 0.00 - 1.00
1618394400 2.00 1.00 - 2.00 10° 15
1618398000 3.00 2.00 - 3.00 30° 10
1618401600 4.00 3.00 - 4.00 30° 15

Ihre Wetterstation

Fehlt Ihre Wetterstation auf unserem Portal?

Schreiben Sie an network@meteonews.ch

Klima

Wann ist es am wärmsten? Wann regnet es am wenigsten? Unsere Klimadaten geben Auskunft.